Tuttle, OK

12:57 AM CDT on April 30, 2017 (GMT -0500)
Walnut Grove | | Change Station

Elev 1329 ft 35.28 °N, 97.70 °W | Updated 24 seconds ago

Overcast
Overcast
47.5 °F
Feels Like 48 °F
N
2.5
Wind Variable Wind from NNW
Gusts 4.9 mph

Today
High -- | Low -- °F
--% Chance of Precip.
Yesterday
High -- | Low -- °F
Precip. -- in
Pressure 29.64 in
Visibility 5.0 miles
Clouds Mostly Cloudy 500 ft
Overcast 800 ft
Windchill 48 °F
Dew Point Not available.
Humidity Not available.
Rainfall 0.00 in
Snow Depth Not available.
6:40 AM 8:16 PM
Waxing Crescent, 19% visible
METAR KOKC 300552Z 31013G19KT 5SM BR BKN005 OVC008 08/08 A2964 RMK AO2 DZB18E52 SLP035 6//// T00830078 10106 20083 401941044 58014 PNO $
Pressure 29.64 in
Visibility 5.0 miles
Clouds Mostly Cloudy 500 ft
Overcast 800 ft
Windchill 48 °F
Dew Point Not available.
Humidity Not available.
Rainfall 0.00 in
Snow Depth Not available.
6:40 AM 8:16 PM
Waxing Crescent, 19% visible
METAR KOKC 300552Z 31013G19KT 5SM BR BKN005 OVC008 08/08 A2964 RMK AO2 DZB18E52 SLP035 6//// T00830078 10106 20083 401941044 58014 PNO $

Get Severe Weather Alerts

Thanks for signing up!

Be on the lookout for a verification email in your inbox.

You'll start receiving the daily forecast at 8 AM.

×

10-Day Weather Forecast

Almanac

Astronomy

Apr. 30, 2017 Rise Set
Actual Time
Civil Twilight
Nautical Twilight
Astronomical Twilight
Moon
Length of Visible Light
Length of Day
Tomorrow will be .
, % of the Moon is Illuminated

Today's Extremes

State Highs State Lows

Community

WunderPhotos

WunderBlog® & News

Nearby

Air Quality

  Air Quality AQ Index Pollutant
Not available.

Snow Depth

Station Depth Elevation

Earthquake Activity

City Distance Mag. Time & Date
Minimum magnitude displayed is 2.5.

Coastal Water Temperatures

Place Temperature

Stations

Nearby Weather Stations

Station Location Temp. Windchill Dew Point Humidity Wind Precip. Elev Updated Type
                   

Watches & Warnings

There are currently no watches in effect.